Detalii statie RANDUNICA PREST ANDRID [00001984]

Toti senzorii

Date Temperatura solului [C]Precipitatii [mm]Voltaj baterie [mV]Leaf Wetness [Min]HC Air temperature [C]HC Relative humidity [%]Punctul de roua [C]
medieminmaxsumaultimatimpmedieminmaxmediemediemin
2017-08-14 20:00:00 24.2 24 24.4 0 6992 21.32 20 22.68 0 0 0
2017-08-14 21:00:00 23.8 23.6 24 0.2 6914 19.09 18.56 19.91 0 0 0
2017-08-14 22:00:00 23.4 23.2 23.8 0 6914 18.09 17.66 18.52 0 0 0
2017-08-14 23:00:00 23.1 22.9 23.4 0.2 6884 16.97 16.75 17.52 0 0 0
2017-08-15 00:00:00 22.7 22.5 23 0 6884 16.34 15.82 16.83 0 0 0
2017-08-15 01:00:00 22.4 22.3 22.6 0.2 6864 15.9 15.54 16.51 0 0 0
2017-08-15 02:00:00 22.1 22 22.3 0 6874 16.6 16.08 16.97 0 0 0
2017-08-15 03:00:00 21.9 21.7 22.1 0 6854 15.41 15.09 16.06 0 0 0
2017-08-15 04:00:00 21.6 21.6 21.8 0.2 6854 14.93 14.69 15.12 0 0 0
2017-08-15 05:00:00 21.4 21.2 21.6 0 6844 14.49 14.26 14.7 0 0 0
2017-08-15 06:00:00 21.2 21 21.4 0 6844 14.22 14.03 14.33 0 0 0
2017-08-15 07:00:00 21 21 21.2 0.2 6854 14.65 14.27 15.3 0 0 0
2017-08-15 08:00:00 20.9 20.6 21.1 0 6844 17.06 15.57 18.52 0 0 0
2017-08-15 09:00:00 21.1 21 21.3 0 6884 20.17 18.93 21.84 0 0 0
2017-08-15 10:00:00 21.4 21.2 21.8 0.2 7000 23.5 22.62 24.47 0 0 0
2017-08-15 11:00:00 21.7 21.6 21.9 0 7158 25.01 24.61 25.55 0 0 0
2017-08-15 12:00:00 21.9 21.7 22.3 0 7264 26.92 26.01 28.37 0 0 0
2017-08-15 13:00:00 22.9 22.3 23.5 0.2 7264 28.47 27.71 28.82 0 0 0
2017-08-15 14:00:00 24 23.5 24.5 0 7264 29.18 28.47 30.05 0 0 0
2017-08-15 15:00:00 24.7 24.5 25.1 0 7254 29.25 28.44 30.12 0 0 0
2017-08-15 16:00:00 25.2 24.9 25.4 0.2 7254 29.4 28.78 29.86 0 0 0
2017-08-15 17:00:00 25.1 25 25.4 0 7264 28.27 27.72 28.78 0 0 0
2017-08-15 18:00:00 24.9 24.6 25.1 0 7264 27.69 27.31 27.93 0 0 0
2017-08-15 19:00:00 24.7 24.5 24.8 0 7080 26.37 24.81 27.35 0 0 0
2017-08-15 20:00:00 24.4 24.3 24.7 0 6942 22.95 21.67 24.42 0 0 0
2017-08-15 21:00:00 24 23.9 24.3 0 6932 20.78 19.59 21.72 0 0 0
2017-08-15 22:00:00 23.7 23.5 24 0 6894 19.2 18.66 19.67 0 0 0
2017-08-15 23:00:00 23.4 23.1 23.7 0 6884 18.61 18.33 19.04 0 0 0
2017-08-16 00:00:00 23.1 23 23.3 0 6884 17.91 17.48 18.22 0 0 0
2017-08-16 01:00:00 22.8 22.6 23 0 6874 17.55 17.27 17.93 0 0 0
2017-08-16 02:00:00 22.5 22.4 22.7 0 6864 17.42 16.95 17.86 0 0 0
2017-08-16 03:00:00 22.3 22.1 22.5 0 6854 16.61 16.19 16.93 0 0 0
2017-08-16 04:00:00 22 21.9 22.2 0 6854 15.82 15.43 16.2 0 0 0
2017-08-16 05:00:00 21.8 21.7 22 0 6844 15.27 15 15.54 0 0 0
2017-08-16 06:00:00 21.6 21.5 21.8 0 6844 15.07 14.76 15.47 0 0 0
2017-08-16 07:00:00 21.4 21.2 21.6 0 6854 16.21 15.49 16.98 0 0 0
2017-08-16 08:00:00 21.3 21.1 21.5 0 6854 18.49 17.11 19.82 0 0 0
2017-08-16 09:00:00 21.5 21.3 21.7 0 6904 21.37 20.23 22.55 0 0 0
2017-08-16 10:00:00 21.8 21.7 22.1 0 6992 23.47 22.65 24.8 0 0 0
2017-08-16 11:00:00 22.1 22 22.3 0 7158 25.73 24.62 27.11 0 0 0
2017-08-16 12:00:00 22.4 22.3 22.8 0 7264 28.82 27.46 29.52 0 0 0
2017-08-16 13:00:00 23.4 22.9 24 0 7264 29.7 29.09 30.42 0 0 0
2017-08-16 14:00:00 24.5 24.1 25.1 0 7254 30.81 29.89 31.76 0 0 0
2017-08-16 15:00:00 25.2 25 25.5 0 7264 31.57 30.67 32.38 0 0 0
2017-08-16 16:00:00 25.7 25.4 25.9 0 7254 31.39 30.92 31.72 0 0 0
2017-08-16 17:00:00 25.6 25.4 25.8 0 7254 30.19 29.16 31.52 0 0 0
2017-08-16 18:00:00 25.3 25.2 25.5 0 7264 28.96 28.48 29.28 0 0 0
2017-08-16 19:00:00 25.1 25 25.3 0 7080 27.21 25.41 28.42 0 0 0